Time;durP1;ratioP1;P1;durP2;ratioP2;P2;SDS_P1;SDS_P2;PMS_P1;PMS_P2;Temp;Humidity;BMP_temperature;BMP_pressure;BME280_temperature;BME280_humidity;BME280_pressure;Samples;Min_cycle;Max_cycle;Signal;HPM_P1;HPM_P2
2022/01/07 00:08:04;;;;;;;0.32;0.10;;;-5.90;99.90;;;;;;20735237;28;20045;-62
2022/01/07 00:18:07;;;;;;;0.10;0.00;;;-6.10;99.90;;;;;;20898025;28;20098;-60
2022/01/07 00:28:10;;;;;;;0.15;0.00;;;-6.10;99.90;;;;;;20880913;28;20459;-63
2022/01/07 00:38:12;;;;;;;0.38;0.00;;;-6.30;99.90;;;;;;20904385;28;20067;-64
2022/01/07 00:48:15;;;;;;;0.10;0.00;;;-6.40;99.90;;;;;;20912390;28;20033;-62
2022/01/07 00:58:18;;;;;;;0.10;0.00;;;-6.50;99.90;;;;;;20912573;28;20102;-63
2022/01/07 01:08:20;;;;;;;0.10;0.07;;;-6.60;99.90;;;;;;20910693;28;20033;-61
2022/01/07 01:18:24;;;;;;;0.20;0.00;;;-6.60;99.90;;;;;;20909655;28;20044;-61
2022/01/07 01:28:27;;;;;;;0.27;0.00;;;-6.60;99.90;;;;;;20929616;28;20113;-57
2022/01/07 01:38:30;;;;;;;0.00;0.00;;;-6.70;99.90;;;;;;20991966;28;20037;-57
2022/01/07 01:48:33;;;;;;;0.47;0.00;;;-6.80;99.90;;;;;;20988926;28;20028;-59
2022/01/07 01:58:39;;;;;;;0.35;0.10;;;-6.80;99.90;;;;;;20919509;28;20075;-53
2022/01/07 02:08:42;;;;;;;0.23;0.00;;;-6.80;99.90;;;;;;20905761;28;20033;-50
2022/01/07 02:18:44;;;;;;;0.13;0.00;;;-6.90;99.90;;;;;;20904762;28;20113;-51
2022/01/07 02:28:49;;;;;;;0.50;0.00;;;-6.90;99.90;;;;;;20904877;28;20439;-50
2022/01/07 02:38:52;;;;;;;0.13;0.00;;;-6.90;99.90;;;;;;20888106;28;20460;-50
2022/01/07 02:48:57;;;;;;;0.20;0.10;;;-6.90;99.90;;;;;;20886421;28;20090;-50
2022/01/07 02:59:02;;;;;;;0.00;0.00;;;-6.90;99.90;;;;;;20901778;28;20037;-53
2022/01/07 03:09:06;;;;;;;0.60;0.10;;;-6.90;99.90;;;;;;20902278;28;20373;-49
2022/01/07 03:19:09;;;;;;;0.93;0.38;;;-7.00;99.90;;;;;;20900610;28;20040;-49
2022/01/07 03:29:11;;;;;;;1.42;0.50;;;-6.90;99.90;;;;;;20899951;28;20057;-50
2022/01/07 03:39:14;;;;;;;0.90;0.43;;;-6.50;99.90;;;;;;20899214;28;20037;-50
2022/01/07 03:49:16;;;;;;;1.05;0.50;;;-6.20;99.90;;;;;;20915303;28;20029;-51
2022/01/07 03:59:19;;;;;;;1.42;0.60;;;-6.20;99.90;;;;;;20898890;28;20041;-51
2022/01/07 04:09:22;;;;;;;2.25;0.88;;;-6.20;99.90;;;;;;20901306;28;20517;-50
2022/01/07 04:19:25;;;;;;;3.45;1.23;;;-6.40;99.90;;;;;;20915496;28;20041;-49
2022/01/07 04:29:27;;;;;;;1.95;1.08;;;-6.50;99.90;;;;;;20913760;28;20052;-54
2022/01/07 04:39:30;;;;;;;3.60;1.30;;;-6.30;99.90;;;;;;20896405;28;20037;-50
2022/01/07 04:49:32;;;;;;;3.85;2.10;;;-6.00;99.90;;;;;;20911619;28;20041;-50
2022/01/07 04:59:36;;;;;;;4.03;1.90;;;-5.40;99.90;;;;;;20911274;28;20041;-50
2022/01/07 05:09:38;;;;;;;3.83;2.05;;;-5.00;99.90;;;;;;20895316;28;20059;-53
2022/01/07 05:19:41;;;;;;;4.50;2.13;;;-4.90;99.90;;;;;;20909930;28;20059;-50
2022/01/07 05:29:43;;;;;;;3.97;2.10;;;-5.00;99.90;;;;;;20940520;28;20048;-53
2022/01/07 05:39:46;;;;;;;4.40;1.73;;;-5.00;99.90;;;;;;20991284;28;20086;-51
2022/01/07 05:49:48;;;;;;;2.55;1.20;;;-4.70;99.90;;;;;;20990757;28;20033;-53
2022/01/07 05:59:51;;;;;;;3.50;1.60;;;-4.50;99.90;;;;;;20989606;28;20044;-52
2022/01/07 06:09:54;;;;;;;3.53;1.25;;;-4.30;99.90;;;;;;20926148;28;20040;-50
2022/01/07 06:19:57;;;;;;;2.40;1.30;;;-4.20;99.90;;;;;;20905815;28;20477;-51
2022/01/07 06:29:59;;;;;;;2.88;1.50;;;-4.10;99.90;;;;;;20889288;28;20049;-50
2022/01/07 06:40:04;;;;;;;4.38;1.35;;;-3.90;99.90;;;;;;20903400;28;20045;-50
2022/01/07 06:50:08;;;;;;;2.92;1.20;;;-3.90;99.90;;;;;;20903497;28;20041;-51
2022/01/07 07:00:13;;;;;;;2.05;0.93;;;-3.90;99.90;;;;;;20903812;28;20087;-52
2022/01/07 07:10:15;;;;;;;2.67;0.90;;;-3.80;99.90;;;;;;20901909;28;20033;-52
2022/01/07 07:20:18;;;;;;;2.78;1.10;;;-3.50;99.90;;;;;;20900881;28;20106;-51
2022/01/07 07:30:21;;;;;;;2.15;0.95;;;-3.50;99.90;;;;;;20883831;28;20052;-51
2022/01/07 07:40:23;;;;;;;1.40;0.80;;;-3.50;99.90;;;;;;20899732;28;20041;-50
2022/01/07 07:50:26;;;;;;;2.20;0.90;;;-3.30;99.90;;;;;;20899138;28;20037;-50
2022/01/07 08:00:31;;;;;;;2.83;1.10;;;-3.00;99.90;;;;;;20896524;28;20045;-50
2022/01/07 08:10:34;;;;;;;6.80;1.00;;;-2.50;99.90;;;;;;20898758;28;20029;-49
2022/01/07 08:20:39;;;;;;;1.75;1.00;;;-1.80;99.90;;;;;;20897566;28;20091;-54
2022/01/07 08:31:00;;;;;;;1.80;1.00;;;-1.20;99.90;;;;;;20897046;28;20041;-52
2022/01/07 08:41:04;;;;;;;1.60;0.77;;;-0.80;99.90;;;;;;20932811;28;20029;-54
2022/01/07 08:51:07;;;;;;;1.65;0.90;;;-0.40;99.90;;;;;;20907760;28;20041;-52
2022/01/07 09:01:10;;;;;;;1.55;0.90;;;0.00;99.90;;;;;;20907337;28;20511;-50
2022/01/07 09:11:13;;;;;;;1.48;0.68;;;0.70;99.90;;;;;;20877965;28;20485;-52
2022/01/07 09:21:17;;;;;;;1.30;0.60;;;1.60;99.90;;;;;;20893130;28;20045;-54
2022/01/07 09:31:19;;;;;;;1.75;0.65;;;2.20;99.90;;;;;;20953166;28;20049;-52
2022/01/07 09:41:24;;;;;;;1.20;0.50;;;2.30;99.90;;;;;;20992494;28;20408;-51
2022/01/07 09:51:28;;;;;;;1.40;0.63;;;2.00;99.90;;;;;;20990594;28;20036;-51
2022/01/07 10:01:31;;;;;;;2.47;0.60;;;2.00;99.90;;;;;;20990027;28;20032;-51
2022/01/07 10:11:34;;;;;;;1.58;0.70;;;1.90;99.90;;;;;;20895567;28;20036;-52
2022/01/07 10:21:37;;;;;;;0.57;0.50;;;1.60;99.90;;;;;;20905871;28;20052;-50
2022/01/07 10:31:39;;;;;;;1.08;0.60;;;1.70;99.90;;;;;;20889173;28;20106;-52
2022/01/07 10:41:59;;;;;;;0.85;0.43;;;1.80;99.90;;;;;;20901125;28;20053;-52
2022/01/07 10:52:02;;;;;;;1.00;0.57;;;1.90;99.50;;;;;;20903374;28;20041;-51
2022/01/07 11:02:05;;;;;;;1.20;0.68;;;1.80;99.90;;;;;;20902688;28;20033;-56
2022/01/07 11:12:10;;;;;;;0.98;0.60;;;1.90;99.30;;;;;;20893477;28;20102;-52
2022/01/07 11:22:16;;;;;;;1.13;0.70;;;1.90;99.40;;;;;;20892227;28;20037;-52
2022/01/07 11:32:46;;;;;;;1.05;0.55;;;2.00;99.90;;;;;;20875558;28;20048;-54
2022/01/07 11:42:49;;;;;;;1.33;0.65;;;1.90;99.20;;;;;;20867079;28;20602;-51
2022/01/07 11:53:02;;;;;;;2.42;0.75;;;2.00;99.60;;;;;;20863640;28;20520;-54
2022/01/07 12:03:05;;;;;;;1.20;0.60;;;2.40;97.90;;;;;;20866709;28;20028;-52
2022/01/07 12:13:08;;;;;;;2.40;0.85;;;2.70;97.60;;;;;;20899167;28;20106;-53
2022/01/07 12:23:19;;;;;;;1.92;0.90;;;2.60;97.70;;;;;;20899267;28;20036;-50
2022/01/07 12:33:22;;;;;;;1.38;0.80;;;2.60;97.70;;;;;;20943178;28;20098;-53
2022/01/07 12:43:31;;;;;;;1.85;1.10;;;2.60;98.90;;;;;;20938583;28;20129;-55
2022/01/07 12:53:35;;;;;;;1.23;0.77;;;2.30;98.00;;;;;;20928735;28;20037;-54
2022/01/07 13:03:37;;;;;;;2.05;1.05;;;1.90;99.90;;;;;;20911758;28;20048;-54
2022/01/07 13:13:42;;;;;;;1.65;1.08;;;1.30;99.30;;;;;;20928135;28;20045;-53
2022/01/07 13:23:50;;;;;;;1.77;1.00;;;0.60;99.60;;;;;;20910716;28;20036;-51
2022/01/07 13:33:53;;;;;;;2.05;1.10;;;0.60;99.90;;;;;;20973722;28;20090;-54
2022/01/07 13:44:04;;;;;;;4.93;0.85;;;0.50;99.90;;;;;;20992238;28;20071;-52
2022/01/07 13:54:25;;;;;;;4.00;0.80;;;0.50;99.90;;;;;;20993156;28;20086;-52
2022/01/07 14:04:50;;;;;;;2.15;1.08;;;0.30;99.80;;;;;;20990495;28;20055;-52
2022/01/07 14:15:06;;;;;;;1.80;1.15;;;-0.10;99.90;;;;;;20898421;28;20033;-52
2022/01/07 14:25:13;;;;;;;4.28;1.20;;;-0.30;99.90;;;;;;20881041;28;20411;-53
2022/01/07 14:35:17;;;;;;;2.22;1.10;;;-0.60;99.90;;;;;;20879527;28;20045;-54
2022/01/07 14:45:20;;;;;;;2.88;1.20;;;-1.30;99.90;;;;;;20871962;28;20524;-51
2022/01/07 14:55:27;;;;;;;2.20;0.88;;;-1.70;99.90;;;;;;20844906;28;20045;-52
2022/01/07 15:05:30;;;;;;;2.15;1.45;;;-2.30;99.90;;;;;;20886048;28;20041;-54
2022/01/07 15:25:54;;;;;;;2.80;1.60;;;-3.00;99.90;;;;;;20884414;28;20068;-53
2022/01/07 15:35:57;;;;;;;3.13;1.60;;;-3.20;99.90;;;;;;20901295;28;20037;-51
2022/01/07 15:46:00;;;;;;;1.88;1.08;;;-3.50;99.90;;;;;;20899925;28;20029;-51
2022/01/07 15:56:04;;;;;;;2.30;0.82;;;-3.90;99.90;;;;;;20899488;28;20110;-50
2022/01/07 16:06:07;;;;;;;1.95;0.90;;;-4.40;99.90;;;;;;20902670;28;20098;-50
2022/01/07 16:16:12;;;;;;;2.13;1.00;;;-4.60;99.90;;;;;;20915526;28;20037;-54
2022/01/07 16:26:15;;;;;;;2.08;0.80;;;-5.30;99.90;;;;;;20914616;28;20045;-50
2022/01/07 16:36:22;;;;;;;2.90;1.20;;;-5.90;99.90;;;;;;20896944;28;20057;-50
2022/01/07 16:46:28;;;;;;;3.47;1.20;;;-6.20;99.90;;;;;;20913165;28;20090;-50
2022/01/07 16:56:30;;;;;;;2.30;1.10;;;-6.40;99.90;;;;;;20912998;28;20045;-52
2022/01/07 17:06:32;;;;;;;2.22;1.05;;;-6.40;99.90;;;;;;20911707;28;20040;-52
2022/01/07 17:16:38;;;;;;;2.08;1.00;;;-6.40;99.90;;;;;;20910422;28;20029;-50
2022/01/07 17:26:44;;;;;;;2.38;1.30;;;-6.40;99.90;;;;;;20909943;28;20052;-50
2022/01/07 17:36:48;;;;;;;2.25;0.75;;;-6.20;99.90;;;;;;20893228;28;20382;-55
2022/01/07 17:46:50;;;;;;;3.47;1.17;;;-6.10;99.90;;;;;;20892752;28;20099;-51
2022/01/07 17:56:53;;;;;;;4.35;1.40;;;-5.90;99.90;;;;;;20891311;28;20345;-51
2022/01/07 18:06:55;;;;;;;3.78;1.50;;;-5.70;99.90;;;;;;20890535;28;20362;-51
2022/01/07 18:16:59;;;;;;;4.13;1.80;;;-5.60;99.90;;;;;;20890066;28;20029;-52
2022/01/07 18:27:02;;;;;;;8.30;4.00;;;-5.50;99.90;;;;;;20888393;28;20065;-51
2022/01/07 18:37:07;;;;;;;2.55;0.85;;;-5.40;99.90;;;;;;20872621;28;20111;-51
2022/01/07 18:47:11;;;;;;;2.28;0.90;;;-5.30;99.90;;;;;;20888102;28;20184;-50
2022/01/07 18:57:14;;;;;;;2.15;0.95;;;-5.20;99.90;;;;;;20903145;28;20087;-51
2022/01/07 19:07:18;;;;;;;2.17;1.00;;;-5.20;99.90;;;;;;20885444;28;20029;-52
2022/01/07 19:17:22;;;;;;;2.45;1.30;;;-5.10;99.90;;;;;;20884992;28;20158;-53
2022/01/07 19:27:25;;;;;;;1.80;0.98;;;-5.10;99.90;;;;;;20884096;28;20048;-54
2022/01/07 19:37:27;;;;;;;2.15;0.90;;;-5.10;99.90;;;;;;20883122;28;20097;-50
2022/01/07 19:47:30;;;;;;;1.75;0.80;;;-5.00;99.90;;;;;;20882891;28;20377;-50
2022/01/07 19:57:33;;;;;;;1.63;0.88;;;-4.80;99.90;;;;;;20883574;28;20396;-51
2022/01/07 20:07:37;;;;;;;1.83;0.60;;;-4.80;99.90;;;;;;20881679;28;20036;-51
2022/01/07 20:17:41;;;;;;;1.45;0.73;;;-4.70;99.90;;;;;;20881311;28;20447;-51
2022/01/07 20:27:45;;;;;;;1.98;0.60;;;-4.60;99.90;;;;;;20880359;28;20071;-50
2022/01/07 20:37:48;;;;;;;2.33;0.68;;;-4.70;99.90;;;;;;20880619;28;20049;-51
2022/01/07 20:47:51;;;;;;;1.58;0.70;;;-4.70;99.90;;;;;;20880374;28;20045;-50
2022/01/07 20:57:55;;;;;;;1.95;0.70;;;-4.90;99.90;;;;;;20892339;28;20036;-50
2022/01/07 21:07:58;;;;;;;1.73;0.70;;;-4.90;99.90;;;;;;20893785;28;20086;-49
2022/01/07 21:18:03;;;;;;;1.67;0.63;;;-4.90;99.90;;;;;;20736824;28;20100;-55
2022/01/07 21:28:07;;;;;;;1.55;0.70;;;-4.80;99.90;;;;;;20784292;28;20493;-50
2022/01/07 21:38:11;;;;;;;3.03;0.80;;;-4.80;99.90;;;;;;20574112;28;20133;-50
2022/01/07 21:48:17;;;;;;;1.38;0.50;;;-4.70;99.90;;;;;;20557204;28;20046;-50
2022/01/07 21:58:23;;;;;;;1.95;0.60;;;-4.60;99.90;;;;;;20570224;28;20435;-54
2022/01/07 22:08:26;;;;;;;1.55;0.52;;;-4.60;99.90;;;;;;20698247;28;20240;-51
2022/01/07 22:18:30;;;;;;;0.75;0.40;;;-4.40;99.90;;;;;;20717033;28;20041;-51
2022/01/07 22:28:35;;;;;;;1.10;0.50;;;-4.40;99.90;;;;;;20859968;28;20045;-55
2022/01/07 22:38:42;;;;;;;1.40;0.52;;;-4.30;99.90;;;;;;20856051;28;20087;-50
2022/01/07 22:48:44;;;;;;;2.15;0.40;;;-4.30;99.90;;;;;;20871017;28;20555;-51
2022/01/07 22:58:47;;;;;;;0.65;0.32;;;-4.30;99.90;;;;;;20886642;28;20451;-50
2022/01/07 23:08:50;;;;;;;0.70;0.38;;;-4.30;99.90;;;;;;20885969;28;20037;-50
2022/01/07 23:18:54;;;;;;;1.55;0.50;;;-4.30;99.90;;;;;;20885130;28;20037;-53
2022/01/07 23:28:57;;;;;;;0.95;0.43;;;-4.30;99.90;;;;;;20902991;28;20045;-51
2022/01/07 23:39:02;;;;;;;1.15;0.32;;;-4.40;99.90;;;;;;20900452;28;20546;-52
2022/01/07 23:49:04;;;;;;;1.05;0.40;;;-4.40;99.90;;;;;;20901850;28;20091;-51
2022/01/07 23:59:07;;;;;;;1.08;0.30;;;-4.60;99.90;;;;;;20726609;28;20066;-53
